sensor_id;sensor_type;location;lat;lon;timestamp;temperature;humidity
2212;DHT22;48849;48.758;9.158;2023-06-22T00:01:24;24.30;99.90
2212;DHT22;48849;48.758;9.158;2023-06-22T00:03:56;24.30;99.90
2212;DHT22;48849;48.758;9.158;2023-06-22T00:06:27;24.20;99.90
2212;DHT22;48849;48.758;9.158;2023-06-22T00:08:54;24.20;99.90
2212;DHT22;48849;48.758;9.158;2023-06-22T00:11:33;24.20;99.90
2212;DHT22;48849;48.758;9.158;2023-06-22T00:14:22;24.10;99.90
2212;DHT22;48849;48.758;9.158;2023-06-22T00:16:57;24.10;99.90
2212;DHT22;48849;48.758;9.158;2023-06-22T00:19:46;24.10;99.90
2212;DHT22;48849;48.758;9.158;2023-06-22T00:22:23;24.20;99.90
2212;DHT22;48849;48.758;9.158;2023-06-22T00:24:54;24.10;99.90
2212;DHT22;48849;48.758;9.158;2023-06-22T00:27:28;24.10;99.90
2212;DHT22;48849;48.758;9.158;2023-06-22T00:29:59;24.10;99.90
2212;DHT22;48849;48.758;9.158;2023-06-22T00:32:31;24.10;99.90
2212;DHT22;48849;48.758;9.158;2023-06-22T00:35:14;24.20;99.90
2212;DHT22;48849;48.758;9.158;2023-06-22T00:37:47;24.10;99.90
2212;DHT22;48849;48.758;9.158;2023-06-22T00:40:18;24.10;99.90
2212;DHT22;48849;48.758;9.158;2023-06-22T00:42:57;24.10;99.90
2212;DHT22;48849;48.758;9.158;2023-06-22T00:45:29;24.00;99.90
2212;DHT22;48849;48.758;9.158;2023-06-22T00:48:07;24.00;99.90
2212;DHT22;48849;48.758;9.158;2023-06-22T00:50:48;23.90;99.90
2212;DHT22;48849;48.758;9.158;2023-06-22T00:53:19;24.00;99.90
2212;DHT22;48849;48.758;9.158;2023-06-22T00:55:55;23.90;99.90
2212;DHT22;48849;48.758;9.158;2023-06-22T00:58:34;23.80;99.90
2212;DHT22;48849;48.758;9.158;2023-06-22T01:01:14;23.90;99.90
2212;DHT22;48849;48.758;9.158;2023-06-22T01:03:44;23.90;99.90
2212;DHT22;48849;48.758;9.158;2023-06-22T01:06:17;23.80;99.90
2212;DHT22;48849;48.758;9.158;2023-06-22T01:08:57;23.90;99.90
2212;DHT22;48849;48.758;9.158;2023-06-22T01:11:36;23.90;99.90
2212;DHT22;48849;48.758;9.158;2023-06-22T01:14:22;23.90;99.90
2212;DHT22;48849;48.758;9.158;2023-06-22T01:16:57;23.80;99.90
2212;DHT22;48849;48.758;9.158;2023-06-22T01:19:39;23.90;99.90
2212;DHT22;48849;48.758;9.158;2023-06-22T01:22:16;23.90;99.90
2212;DHT22;48849;48.758;9.158;2023-06-22T01:24:55;23.90;99.90
2212;DHT22;48849;48.758;9.158;2023-06-22T01:27:51;23.80;99.90
2212;DHT22;48849;48.758;9.158;2023-06-22T01:30:25;23.90;99.90
2212;DHT22;48849;48.758;9.158;2023-06-22T01:32:57;23.90;99.90
2212;DHT22;48849;48.758;9.158;2023-06-22T01:35:30;23.80;99.90
2212;DHT22;48849;48.758;9.158;2023-06-22T01:38:01;23.80;99.90
2212;DHT22;48849;48.758;9.158;2023-06-22T01:40:45;23.80;99.90
2212;DHT22;48849;48.758;9.158;2023-06-22T01:43:17;23.80;99.90
2212;DHT22;48849;48.758;9.158;2023-06-22T01:46:22;23.80;99.90
2212;DHT22;48849;48.758;9.158;2023-06-22T01:48:45;23.80;99.90
2212;DHT22;48849;48.758;9.158;2023-06-22T01:51:32;23.80;99.90
2212;DHT22;48849;48.758;9.158;2023-06-22T01:54:10;23.80;99.90
2212;DHT22;48849;48.758;9.158;2023-06-22T01:56:58;23.80;99.90
2212;DHT22;48849;48.758;9.158;2023-06-22T01:59:48;23.80;99.90
2212;DHT22;48849;48.758;9.158;2023-06-22T02:02:28;23.80;99.90
2212;DHT22;48849;48.758;9.158;2023-06-22T02:05:09;23.70;99.90
2212;DHT22;48849;48.758;9.158;2023-06-22T02:07:44;23.70;99.90
2212;DHT22;48849;48.758;9.158;2023-06-22T02:10:26;23.70;99.90
2212;DHT22;48849;48.758;9.158;2023-06-22T02:13:07;23.70;99.90
2212;DHT22;48849;48.758;9.158;2023-06-22T02:15:40;23.70;99.90
2212;DHT22;48849;48.758;9.158;2023-06-22T02:18:17;23.60;99.90
2212;DHT22;48849;48.758;9.158;2023-06-22T02:21:06;23.70;99.90
2212;DHT22;48849;48.758;9.158;2023-06-22T02:23:43;23.60;99.90
2212;DHT22;48849;48.758;9.158;2023-06-22T02:26:16;23.50;99.90
2212;DHT22;48849;48.758;9.158;2023-06-22T02:28:50;23.50;99.90
2212;DHT22;48849;48.758;9.158;2023-06-22T02:31:21;23.50;99.90
2212;DHT22;48849;48.758;9.158;2023-06-22T02:34:03;23.50;99.90
2212;DHT22;48849;48.758;9.158;2023-06-22T02:36:30;23.50;99.90
2212;DHT22;48849;48.758;9.158;2023-06-22T02:38:59;23.60;99.90
2212;DHT22;48849;48.758;9.158;2023-06-22T02:41:26;23.60;99.90
2212;DHT22;48849;48.758;9.158;2023-06-22T02:43:59;23.60;99.90
2212;DHT22;48849;48.758;9.158;2023-06-22T02:46:26;23.50;99.90
2212;DHT22;48849;48.758;9.158;2023-06-22T02:48:55;23.50;99.90
2212;DHT22;48849;48.758;9.158;2023-06-22T02:51:30;23.50;99.90
2212;DHT22;48849;48.758;9.158;2023-06-22T02:53:57;23.50;99.90
2212;DHT22;48849;48.758;9.158;2023-06-22T02:56:30;23.40;99.90
2212;DHT22;48849;48.758;9.158;2023-06-22T02:59:03;23.40;99.90
2212;DHT22;48849;48.758;9.158;2023-06-22T03:01:41;23.40;99.90
2212;DHT22;48849;48.758;9.158;2023-06-22T03:04:10;23.40;99.90
2212;DHT22;48849;48.758;9.158;2023-06-22T03:06:45;23.40;99.90
2212;DHT22;48849;48.758;9.158;2023-06-22T03:09:17;23.40;99.90
2212;DHT22;48849;48.758;9.158;2023-06-22T03:11:53;23.40;99.90
2212;DHT22;48849;48.758;9.158;2023-06-22T03:14:28;23.30;99.90
2212;DHT22;48849;48.758;9.158;2023-06-22T03:17:03;23.30;99.90
2212;DHT22;48849;48.758;9.158;2023-06-22T03:19:38;23.30;99.90
2212;DHT22;48849;48.758;9.158;2023-06-22T03:22:09;23.40;99.90
2212;DHT22;48849;48.758;9.158;2023-06-22T03:24:40;23.40;99.90
2212;DHT22;48849;48.758;9.158;2023-06-22T03:27:13;23.30;99.90
2212;DHT22;48849;48.758;9.158;2023-06-22T03:29:43;23.30;99.90
2212;DHT22;48849;48.758;9.158;2023-06-22T03:32:12;23.30;99.90
2212;DHT22;48849;48.758;9.158;2023-06-22T03:35:06;23.30;99.90
2212;DHT22;48849;48.758;9.158;2023-06-22T03:37:48;23.20;99.90
2212;DHT22;48849;48.758;9.158;2023-06-22T03:40:27;23.30;99.90
2212;DHT22;48849;48.758;9.158;2023-06-22T03:43:03;23.20;99.90
2212;DHT22;48849;48.758;9.158;2023-06-22T03:45:38;23.20;99.90
2212;DHT22;48849;48.758;9.158;2023-06-22T03:48:17;23.20;99.90
2212;DHT22;48849;48.758;9.158;2023-06-22T03:50:52;23.20;99.90
2212;DHT22;48849;48.758;9.158;2023-06-22T03:53:25;23.20;99.90
2212;DHT22;48849;48.758;9.158;2023-06-22T03:56:09;23.10;99.90
2212;DHT22;48849;48.758;9.158;2023-06-22T03:58:45;23.20;99.90
2212;DHT22;48849;48.758;9.158;2023-06-22T04:01:21;23.10;99.90
2212;DHT22;48849;48.758;9.158;2023-06-22T04:03:55;23.10;99.90
2212;DHT22;48849;48.758;9.158;2023-06-22T04:06:26;23.10;99.90
2212;DHT22;48849;48.758;9.158;2023-06-22T04:08:57;23.10;99.90
2212;DHT22;48849;48.758;9.158;2023-06-22T04:11:24;23.10;99.90
2212;DHT22;48849;48.758;9.158;2023-06-22T04:13:51;23.10;99.90
2212;DHT22;48849;48.758;9.158;2023-06-22T04:16:18;23.00;99.90
2212;DHT22;48849;48.758;9.158;2023-06-22T04:18:45;23.10;99.90
2212;DHT22;48849;48.758;9.158;2023-06-22T04:21:13;23.10;99.90
2212;DHT22;48849;48.758;9.158;2023-06-22T04:23:40;23.10;99.90
2212;DHT22;48849;48.758;9.158;2023-06-22T04:26:08;23.10;99.90
2212;DHT22;48849;48.758;9.158;2023-06-22T04:28:34;23.10;99.90
2212;DHT22;48849;48.758;9.158;2023-06-22T04:31:01;23.10;99.90
2212;DHT22;48849;48.758;9.158;2023-06-22T04:33:28;23.10;99.90
2212;DHT22;48849;48.758;9.158;2023-06-22T04:35:55;23.10;99.90
2212;DHT22;48849;48.758;9.158;2023-06-22T04:38:23;23.20;99.90
2212;DHT22;48849;48.758;9.158;2023-06-22T04:40:50;23.20;99.90
2212;DHT22;48849;48.758;9.158;2023-06-22T04:43:20;23.20;99.90
2212;DHT22;48849;48.758;9.158;2023-06-22T04:45:46;23.20;99.90
2212;DHT22;48849;48.758;9.158;2023-06-22T04:48:17;23.20;99.90
2212;DHT22;48849;48.758;9.158;2023-06-22T04:50:44;23.20;99.90
2212;DHT22;48849;48.758;9.158;2023-06-22T04:53:11;23.20;99.90
2212;DHT22;48849;48.758;9.158;2023-06-22T04:55:38;23.20;99.90
2212;DHT22;48849;48.758;9.158;2023-06-22T04:58:07;23.20;99.90
2212;DHT22;48849;48.758;9.158;2023-06-22T05:00:35;23.30;99.90
2212;DHT22;48849;48.758;9.158;2023-06-22T05:03:02;23.30;99.90
2212;DHT22;48849;48.758;9.158;2023-06-22T05:05:29;23.30;99.90
2212;DHT22;48849;48.758;9.158;2023-06-22T05:07:57;23.30;99.90
2212;DHT22;48849;48.758;9.158;2023-06-22T05:10:25;23.30;99.90
2212;DHT22;48849;48.758;9.158;2023-06-22T05:12:52;23.20;99.90
2212;DHT22;48849;48.758;9.158;2023-06-22T05:15:19;23.20;99.90
2212;DHT22;48849;48.758;9.158;2023-06-22T05:17:49;23.20;99.90
2212;DHT22;48849;48.758;9.158;2023-06-22T05:20:15;23.30;99.90
2212;DHT22;48849;48.758;9.158;2023-06-22T05:22:43;23.20;99.90
2212;DHT22;48849;48.758;9.158;2023-06-22T05:25:11;23.20;99.90
2212;DHT22;48849;48.758;9.158;2023-06-22T05:27:38;23.30;99.90
2212;DHT22;48849;48.758;9.158;2023-06-22T05:30:06;23.30;99.90
2212;DHT22;48849;48.758;9.158;2023-06-22T05:32:34;23.30;99.90
2212;DHT22;48849;48.758;9.158;2023-06-22T05:35:02;23.40;99.90
2212;DHT22;48849;48.758;9.158;2023-06-22T05:37:29;23.40;99.90
2212;DHT22;48849;48.758;9.158;2023-06-22T05:39:56;23.40;99.90
2212;DHT22;48849;48.758;9.158;2023-06-22T05:42:23;23.40;99.90
2212;DHT22;48849;48.758;9.158;2023-06-22T05:44:51;23.50;99.90
2212;DHT22;48849;48.758;9.158;2023-06-22T05:47:18;23.50;99.90
2212;DHT22;48849;48.758;9.158;2023-06-22T05:49:45;23.50;99.90
2212;DHT22;48849;48.758;9.158;2023-06-22T05:52:13;23.60;99.90
2212;DHT22;48849;48.758;9.158;2023-06-22T05:54:40;23.60;99.90
2212;DHT22;48849;48.758;9.158;2023-06-22T05:57:07;23.50;99.90
2212;DHT22;48849;48.758;9.158;2023-06-22T05:59:34;23.60;99.90
2212;DHT22;48849;48.758;9.158;2023-06-22T06:02:00;23.60;99.90
2212;DHT22;48849;48.758;9.158;2023-06-22T06:04:27;23.60;99.90
2212;DHT22;48849;48.758;9.158;2023-06-22T06:06:54;23.60;99.90
2212;DHT22;48849;48.758;9.158;2023-06-22T06:09:23;23.60;99.90
2212;DHT22;48849;48.758;9.158;2023-06-22T06:11:50;23.70;99.90
2212;DHT22;48849;48.758;9.158;2023-06-22T06:14:17;23.60;99.90
2212;DHT22;48849;48.758;9.158;2023-06-22T06:16:44;23.70;99.90
2212;DHT22;48849;48.758;9.158;2023-06-22T06:19:10;23.60;99.90
2212;DHT22;48849;48.758;9.158;2023-06-22T06:21:37;23.60;99.90
2212;DHT22;48849;48.758;9.158;2023-06-22T06:24:04;23.60;99.90
2212;DHT22;48849;48.758;9.158;2023-06-22T06:26:33;23.60;99.90
2212;DHT22;48849;48.758;9.158;2023-06-22T06:29:01;23.60;99.90
2212;DHT22;48849;48.758;9.158;2023-06-22T06:31:29;23.70;99.90
2212;DHT22;48849;48.758;9.158;2023-06-22T06:33:55;23.70;99.90
2212;DHT22;48849;48.758;9.158;2023-06-22T06:36:22;23.50;99.90
2212;DHT22;48849;48.758;9.158;2023-06-22T06:38:49;23.70;99.90
2212;DHT22;48849;48.758;9.158;2023-06-22T06:41:16;23.70;99.90
2212;DHT22;48849;48.758;9.158;2023-06-22T06:43:44;23.70;99.90
2212;DHT22;48849;48.758;9.158;2023-06-22T06:46:11;23.70;99.90
2212;DHT22;48849;48.758;9.158;2023-06-22T06:48:38;23.70;99.90
2212;DHT22;48849;48.758;9.158;2023-06-22T06:51:05;23.70;99.90
2212;DHT22;48849;48.758;9.158;2023-06-22T06:53:35;23.80;99.90
2212;DHT22;48849;48.758;9.158;2023-06-22T06:56:02;23.80;99.90
2212;DHT22;48849;48.758;9.158;2023-06-22T06:58:30;23.80;99.90
2212;DHT22;48849;48.758;9.158;2023-06-22T07:00:59;23.90;99.90
2212;DHT22;48849;48.758;9.158;2023-06-22T07:03:26;23.80;99.90
2212;DHT22;48849;48.758;9.158;2023-06-22T07:05:53;23.90;99.90
2212;DHT22;48849;48.758;9.158;2023-06-22T07:08:19;23.90;99.90
2212;DHT22;48849;48.758;9.158;2023-06-22T07:10:46;23.90;99.90
2212;DHT22;48849;48.758;9.158;2023-06-22T07:13:13;23.90;99.90
2212;DHT22;48849;48.758;9.158;2023-06-22T07:15:40;24.00;99.90
2212;DHT22;48849;48.758;9.158;2023-06-22T07:18:09;24.00;99.90
2212;DHT22;48849;48.758;9.158;2023-06-22T07:20:36;24.10;99.90
2212;DHT22;48849;48.758;9.158;2023-06-22T07:23:02;24.00;99.90
2212;DHT22;48849;48.758;9.158;2023-06-22T07:25:29;24.10;99.90
2212;DHT22;48849;48.758;9.158;2023-06-22T07:27:58;24.10;99.90
2212;DHT22;48849;48.758;9.158;2023-06-22T07:30:27;24.10;99.90
2212;DHT22;48849;48.758;9.158;2023-06-22T07:32:54;24.20;99.90
2212;DHT22;48849;48.758;9.158;2023-06-22T07:35:22;24.10;99.90
2212;DHT22;48849;48.758;9.158;2023-06-22T07:37:50;24.20;99.90
2212;DHT22;48849;48.758;9.158;2023-06-22T07:40:17;24.10;99.90
2212;DHT22;48849;48.758;9.158;2023-06-22T07:42:44;24.30;99.90
2212;DHT22;48849;48.758;9.158;2023-06-22T07:45:14;24.20;99.90
2212;DHT22;48849;48.758;9.158;2023-06-22T07:47:40;24.30;99.90
2212;DHT22;48849;48.758;9.158;2023-06-22T07:50:08;24.30;99.90
2212;DHT22;48849;48.758;9.158;2023-06-22T07:52:36;24.30;99.90
2212;DHT22;48849;48.758;9.158;2023-06-22T07:55:04;24.30;99.90
2212;DHT22;48849;48.758;9.158;2023-06-22T07:57:31;24.30;99.90
2212;DHT22;48849;48.758;9.158;2023-06-22T08:00:03;24.40;99.90
2212;DHT22;48849;48.758;9.158;2023-06-22T08:02:36;24.40;99.90
2212;DHT22;48849;48.758;9.158;2023-06-22T08:05:04;24.50;99.90
2212;DHT22;48849;48.758;9.158;2023-06-22T08:07:32;24.40;99.90
2212;DHT22;48849;48.758;9.158;2023-06-22T08:10:00;24.50;99.90
2212;DHT22;48849;48.758;9.158;2023-06-22T08:12:27;24.50;99.90
2212;DHT22;48849;48.758;9.158;2023-06-22T08:14:54;24.60;99.90
2212;DHT22;48849;48.758;9.158;2023-06-22T08:17:22;24.50;99.90
2212;DHT22;48849;48.758;9.158;2023-06-22T08:19:49;24.60;99.90
2212;DHT22;48849;48.758;9.158;2023-06-22T08:22:16;24.60;99.90
2212;DHT22;48849;48.758;9.158;2023-06-22T08:24:44;24.60;99.90
2212;DHT22;48849;48.758;9.158;2023-06-22T08:27:12;24.70;99.90
2212;DHT22;48849;48.758;9.158;2023-06-22T08:29:40;24.70;99.90
2212;DHT22;48849;48.758;9.158;2023-06-22T08:32:08;24.70;99.90
2212;DHT22;48849;48.758;9.158;2023-06-22T08:34:35;24.70;99.90
2212;DHT22;48849;48.758;9.158;2023-06-22T08:37:02;24.70;99.90
2212;DHT22;48849;48.758;9.158;2023-06-22T08:39:32;24.70;99.90
2212;DHT22;48849;48.758;9.158;2023-06-22T08:41:59;24.80;99.90
2212;DHT22;48849;48.758;9.158;2023-06-22T08:44:27;24.80;99.90
2212;DHT22;48849;48.758;9.158;2023-06-22T08:46:54;24.80;99.90
2212;DHT22;48849;48.758;9.158;2023-06-22T08:49:21;24.90;99.90
2212;DHT22;48849;48.758;9.158;2023-06-22T08:51:48;24.90;99.90
2212;DHT22;48849;48.758;9.158;2023-06-22T08:54:18;24.70;99.90
2212;DHT22;48849;48.758;9.158;2023-06-22T08:56:45;24.90;99.90
2212;DHT22;48849;48.758;9.158;2023-06-22T08:59:12;25.00;99.90
2212;DHT22;48849;48.758;9.158;2023-06-22T09:01:41;25.10;99.90
2212;DHT22;48849;48.758;9.158;2023-06-22T09:04:14;25.10;99.90
2212;DHT22;48849;48.758;9.158;2023-06-22T09:06:43;25.10;99.90
2212;DHT22;48849;48.758;9.158;2023-06-22T09:09:12;25.10;99.90
2212;DHT22;48849;48.758;9.158;2023-06-22T09:11:39;25.20;99.90
2212;DHT22;48849;48.758;9.158;2023-06-22T09:14:06;25.20;99.90
2212;DHT22;48849;48.758;9.158;2023-06-22T09:16:33;25.20;99.90
2212;DHT22;48849;48.758;9.158;2023-06-22T09:19:02;25.30;99.90
2212;DHT22;48849;48.758;9.158;2023-06-22T09:21:34;25.30;99.90
2212;DHT22;48849;48.758;9.158;2023-06-22T09:24:01;25.30;99.90
2212;DHT22;48849;48.758;9.158;2023-06-22T09:26:28;25.30;99.90
2212;DHT22;48849;48.758;9.158;2023-06-22T09:28:55;25.40;99.90
2212;DHT22;48849;48.758;9.158;2023-06-22T09:31:23;25.40;99.90
2212;DHT22;48849;48.758;9.158;2023-06-22T09:33:53;25.50;99.90
2212;DHT22;48849;48.758;9.158;2023-06-22T09:36:22;25.60;99.90
2212;DHT22;48849;48.758;9.158;2023-06-22T09:38:49;25.70;99.90
2212;DHT22;48849;48.758;9.158;2023-06-22T09:41:21;25.60;99.90
2212;DHT22;48849;48.758;9.158;2023-06-22T09:43:48;25.70;99.90
2212;DHT22;48849;48.758;9.158;2023-06-22T09:46:15;25.60;99.90
2212;DHT22;48849;48.758;9.158;2023-06-22T09:48:42;25.70;99.90
2212;DHT22;48849;48.758;9.158;2023-06-22T09:51:09;25.70;99.90
2212;DHT22;48849;48.758;9.158;2023-06-22T09:53:37;25.60;99.90
2212;DHT22;48849;48.758;9.158;2023-06-22T09:56:04;25.70;99.90
2212;DHT22;48849;48.758;9.158;2023-06-22T09:58:31;25.60;99.90
2212;DHT22;48849;48.758;9.158;2023-06-22T10:00:58;25.60;99.90
2212;DHT22;48849;48.758;9.158;2023-06-22T10:03:25;25.70;99.90
2212;DHT22;48849;48.758;9.158;2023-06-22T10:05:52;25.80;99.90
2212;DHT22;48849;48.758;9.158;2023-06-22T10:08:19;25.90;99.90
2212;DHT22;48849;48.758;9.158;2023-06-22T10:10:47;26.00;99.90
2212;DHT22;48849;48.758;9.158;2023-06-22T10:13:14;26.00;99.90
2212;DHT22;48849;48.758;9.158;2023-06-22T10:15:42;26.00;99.90
2212;DHT22;48849;48.758;9.158;2023-06-22T10:18:11;26.10;99.90
2212;DHT22;48849;48.758;9.158;2023-06-22T10:20:37;26.10;99.90
2212;DHT22;48849;48.758;9.158;2023-06-22T10:23:04;26.10;99.90
2212;DHT22;48849;48.758;9.158;2023-06-22T10:25:31;26.10;99.90
2212;DHT22;48849;48.758;9.158;2023-06-22T10:27:59;26.20;99.90
2212;DHT22;48849;48.758;9.158;2023-06-22T10:30:27;26.20;99.90
2212;DHT22;48849;48.758;9.158;2023-06-22T10:32:54;26.30;99.90
2212;DHT22;48849;48.758;9.158;2023-06-22T10:35:21;26.30;99.90
2212;DHT22;48849;48.758;9.158;2023-06-22T10:37:48;26.30;99.90
2212;DHT22;48849;48.758;9.158;2023-06-22T10:40:44;26.30;99.90
2212;DHT22;48849;48.758;9.158;2023-06-22T10:43:12;26.30;99.90
2212;DHT22;48849;48.758;9.158;2023-06-22T10:45:39;26.30;99.90
2212;DHT22;48849;48.758;9.158;2023-06-22T10:48:06;26.40;99.90
2212;DHT22;48849;48.758;9.158;2023-06-22T10:50:33;26.40;99.90
2212;DHT22;48849;48.758;9.158;2023-06-22T10:53:00;26.50;99.90
2212;DHT22;48849;48.758;9.158;2023-06-22T10:55:27;26.60;99.90
2212;DHT22;48849;48.758;9.158;2023-06-22T10:57:54;26.60;99.90
2212;DHT22;48849;48.758;9.158;2023-06-22T11:00:29;26.60;99.90
2212;DHT22;48849;48.758;9.158;2023-06-22T11:02:56;26.60;99.90
2212;DHT22;48849;48.758;9.158;2023-06-22T11:05:37;26.50;99.90
2212;DHT22;48849;48.758;9.158;2023-06-22T11:08:04;26.50;99.90
2212;DHT22;48849;48.758;9.158;2023-06-22T11:10:31;26.50;99.90
2212;DHT22;48849;48.758;9.158;2023-06-22T11:12:58;26.50;99.90
2212;DHT22;48849;48.758;9.158;2023-06-22T11:15:25;26.50;99.90
2212;DHT22;48849;48.758;9.158;2023-06-22T11:17:54;26.40;99.90
2212;DHT22;48849;48.758;9.158;2023-06-22T11:20:21;26.40;99.90
2212;DHT22;48849;48.758;9.158;2023-06-22T11:22:47;26.40;99.90
2212;DHT22;48849;48.758;9.158;2023-06-22T11:25:14;26.40;99.90
2212;DHT22;48849;48.758;9.158;2023-06-22T11:27:41;26.30;99.90
2212;DHT22;48849;48.758;9.158;2023-06-22T11:30:09;26.20;99.90
2212;DHT22;48849;48.758;9.158;2023-06-22T11:32:36;26.30;99.90
2212;DHT22;48849;48.758;9.158;2023-06-22T11:35:04;26.30;99.90
2212;DHT22;48849;48.758;9.158;2023-06-22T11:37:32;26.30;99.90
2212;DHT22;48849;48.758;9.158;2023-06-22T11:39:59;26.30;99.90
2212;DHT22;48849;48.758;9.158;2023-06-22T11:42:42;26.30;99.90
2212;DHT22;48849;48.758;9.158;2023-06-22T11:45:10;26.40;99.90
2212;DHT22;48849;48.758;9.158;2023-06-22T11:47:37;26.50;99.90
2212;DHT22;48849;48.758;9.158;2023-06-22T11:50:07;26.50;99.90
2212;DHT22;48849;48.758;9.158;2023-06-22T11:52:50;26.50;99.90
2212;DHT22;48849;48.758;9.158;2023-06-22T11:55:19;26.60;99.90
2212;DHT22;48849;48.758;9.158;2023-06-22T11:58:13;26.60;99.90
2212;DHT22;48849;48.758;9.158;2023-06-22T12:00:40;26.60;99.90
2212;DHT22;48849;48.758;9.158;2023-06-22T12:03:07;26.60;99.90
2212;DHT22;48849;48.758;9.158;2023-06-22T12:05:36;26.50;99.90
2212;DHT22;48849;48.758;9.158;2023-06-22T12:08:03;26.50;99.90
2212;DHT22;48849;48.758;9.158;2023-06-22T12:10:33;26.50;99.90
2212;DHT22;48849;48.758;9.158;2023-06-22T12:13:01;26.50;99.90
2212;DHT22;48849;48.758;9.158;2023-06-22T12:15:28;26.50;99.90
2212;DHT22;48849;48.758;9.158;2023-06-22T12:17:55;26.50;99.90
2212;DHT22;48849;48.758;9.158;2023-06-22T12:20:43;26.50;99.90
2212;DHT22;48849;48.758;9.158;2023-06-22T12:23:10;26.40;99.90
2212;DHT22;48849;48.758;9.158;2023-06-22T12:25:38;26.40;99.90
2212;DHT22;48849;48.758;9.158;2023-06-22T12:28:05;26.40;99.90
2212;DHT22;48849;48.758;9.158;2023-06-22T12:30:32;26.40;99.90
2212;DHT22;48849;48.758;9.158;2023-06-22T12:33:09;26.40;99.90
2212;DHT22;48849;48.758;9.158;2023-06-22T12:35:39;26.30;99.90
2212;DHT22;48849;48.758;9.158;2023-06-22T12:38:08;26.30;99.90
2212;DHT22;48849;48.758;9.158;2023-06-22T12:40:37;26.30;99.90
2212;DHT22;48849;48.758;9.158;2023-06-22T12:43:04;26.20;99.90
2212;DHT22;48849;48.758;9.158;2023-06-22T12:45:33;26.20;99.90
2212;DHT22;48849;48.758;9.158;2023-06-22T12:51:10;26.20;99.90
2212;DHT22;48849;48.758;9.158;2023-06-22T12:53:39;26.20;99.90
2212;DHT22;48849;48.758;9.158;2023-06-22T12:56:05;26.20;99.90
2212;DHT22;48849;48.758;9.158;2023-06-22T12:58:32;26.10;99.90
2212;DHT22;48849;48.758;9.158;2023-06-22T13:00:59;26.10;99.90
2212;DHT22;48849;48.758;9.158;2023-06-22T13:03:26;26.10;99.90
2212;DHT22;48849;48.758;9.158;2023-06-22T13:05:54;26.20;99.90
2212;DHT22;48849;48.758;9.158;2023-06-22T13:08:32;26.20;99.90
2212;DHT22;48849;48.758;9.158;2023-06-22T13:11:01;26.20;99.90
2212;DHT22;48849;48.758;9.158;2023-06-22T13:13:28;26.20;99.90
2212;DHT22;48849;48.758;9.158;2023-06-22T13:15:55;26.20;99.90
2212;DHT22;48849;48.758;9.158;2023-06-22T13:18:24;26.20;99.90
2212;DHT22;48849;48.758;9.158;2023-06-22T13:20:51;26.20;99.90
2212;DHT22;48849;48.758;9.158;2023-06-22T13:23:38;26.20;99.90
2212;DHT22;48849;48.758;9.158;2023-06-22T13:26:08;26.10;99.90
2212;DHT22;48849;48.758;9.158;2023-06-22T13:28:34;26.10;99.90
2212;DHT22;48849;48.758;9.158;2023-06-22T13:31:01;26.20;99.90
2212;DHT22;48849;48.758;9.158;2023-06-22T13:33:28;26.30;99.90
2212;DHT22;48849;48.758;9.158;2023-06-22T13:35:55;26.20;99.90
2212;DHT22;48849;48.758;9.158;2023-06-22T13:38:22;26.20;99.90
2212;DHT22;48849;48.758;9.158;2023-06-22T13:40:49;26.30;99.90
2212;DHT22;48849;48.758;9.158;2023-06-22T13:43:18;26.30;99.90
2212;DHT22;48849;48.758;9.158;2023-06-22T13:45:45;26.30;99.90
2212;DHT22;48849;48.758;9.158;2023-06-22T13:48:11;26.30;99.90
2212;DHT22;48849;48.758;9.158;2023-06-22T13:50:38;26.30;99.90
2212;DHT22;48849;48.758;9.158;2023-06-22T13:53:05;26.30;99.90
2212;DHT22;48849;48.758;9.158;2023-06-22T13:55:32;26.30;99.90
2212;DHT22;48849;48.758;9.158;2023-06-22T13:57:59;26.30;99.90
2212;DHT22;48849;48.758;9.158;2023-06-22T14:00:28;26.30;99.90
2212;DHT22;48849;48.758;9.158;2023-06-22T14:02:55;26.30;99.90
2212;DHT22;48849;48.758;9.158;2023-06-22T14:05:22;26.30;99.90
2212;DHT22;48849;48.758;9.158;2023-06-22T14:07:48;26.40;99.90
2212;DHT22;48849;48.758;9.158;2023-06-22T14:10:15;26.40;99.90
2212;DHT22;48849;48.758;9.158;2023-06-22T14:12:42;26.50;99.90
2212;DHT22;48849;48.758;9.158;2023-06-22T14:15:10;26.50;99.90
2212;DHT22;48849;48.758;9.158;2023-06-22T14:17:38;26.70;99.90
2212;DHT22;48849;48.758;9.158;2023-06-22T14:20:08;27.00;99.90
2212;DHT22;48849;48.758;9.158;2023-06-22T14:22:35;27.20;99.90
2212;DHT22;48849;48.758;9.158;2023-06-22T14:25:03;27.30;99.90
2212;DHT22;48849;48.758;9.158;2023-06-22T14:27:50;27.20;99.90
2212;DHT22;48849;48.758;9.158;2023-06-22T14:30:17;27.20;99.90
2212;DHT22;48849;48.758;9.158;2023-06-22T14:33:00;27.10;99.90
2212;DHT22;48849;48.758;9.158;2023-06-22T14:35:26;27.10;99.90
2212;DHT22;48849;48.758;9.158;2023-06-22T14:41:11;27.10;99.90
2212;DHT22;48849;48.758;9.158;2023-06-22T14:43:44;27.10;99.90
2212;DHT22;48849;48.758;9.158;2023-06-22T14:46:25;27.10;99.90
2212;DHT22;48849;48.758;9.158;2023-06-22T14:48:53;27.10;99.90
2212;DHT22;48849;48.758;9.158;2023-06-22T14:51:20;27.20;99.90
2212;DHT22;48849;48.758;9.158;2023-06-22T14:53:47;27.10;99.90
2212;DHT22;48849;48.758;9.158;2023-06-22T14:56:14;27.20;99.90
2212;DHT22;48849;48.758;9.158;2023-06-22T14:58:41;27.20;99.90
2212;DHT22;48849;48.758;9.158;2023-06-22T15:01:10;27.20;99.90
2212;DHT22;48849;48.758;9.158;2023-06-22T15:03:38;27.30;99.90
2212;DHT22;48849;48.758;9.158;2023-06-22T15:16:00;27.60;99.90
2212;DHT22;48849;48.758;9.158;2023-06-22T15:18:27;27.70;99.90
2212;DHT22;48849;48.758;9.158;2023-06-22T15:20:54;27.70;99.90
2212;DHT22;48849;48.758;9.158;2023-06-22T15:23:20;27.80;99.90
2212;DHT22;48849;48.758;9.158;2023-06-22T15:25:47;27.80;99.90
2212;DHT22;48849;48.758;9.158;2023-06-22T15:28:14;27.80;99.90
2212;DHT22;48849;48.758;9.158;2023-06-22T15:30:41;27.80;99.90
2212;DHT22;48849;48.758;9.158;2023-06-22T15:33:10;27.90;99.90
2212;DHT22;48849;48.758;9.158;2023-06-22T15:35:37;27.90;99.90
2212;DHT22;48849;48.758;9.158;2023-06-22T15:38:04;27.90;99.90
2212;DHT22;48849;48.758;9.158;2023-06-22T15:40:31;28.00;99.90
2212;DHT22;48849;48.758;9.158;2023-06-22T15:43:04;28.00;99.90
2212;DHT22;48849;48.758;9.158;2023-06-22T15:45:31;28.10;99.90
2212;DHT22;48849;48.758;9.158;2023-06-22T15:47:58;28.10;99.90
2212;DHT22;48849;48.758;9.158;2023-06-22T15:50:26;28.00;99.90
2212;DHT22;48849;48.758;9.158;2023-06-22T15:52:53;28.00;99.90
2212;DHT22;48849;48.758;9.158;2023-06-22T15:55:20;28.00;99.90
2212;DHT22;48849;48.758;9.158;2023-06-22T15:57:47;28.00;99.90
2212;DHT22;48849;48.758;9.158;2023-06-22T16:00:15;28.00;99.90
2212;DHT22;48849;48.758;9.158;2023-06-22T16:02:43;27.90;99.90
2212;DHT22;48849;48.758;9.158;2023-06-22T16:05:11;27.90;99.90
2212;DHT22;48849;48.758;9.158;2023-06-22T16:07:45;27.80;99.90
2212;DHT22;48849;48.758;9.158;2023-06-22T16:10:12;27.90;99.90
2212;DHT22;48849;48.758;9.158;2023-06-22T16:12:42;27.80;99.90
2212;DHT22;48849;48.758;9.158;2023-06-22T16:15:10;27.80;99.90
2212;DHT22;48849;48.758;9.158;2023-06-22T16:17:37;27.80;99.90
2212;DHT22;48849;48.758;9.158;2023-06-22T16:20:04;27.80;99.90